sensor_id;sensor_type;location;lat;lon;timestamp;temperature;humidity
70456;DHT22;57916;51.996;5.180;2023-03-02T00:01:28;6.10;61.70
70456;DHT22;57916;51.996;5.180;2023-03-02T00:03:57;6.00;62.00
70456;DHT22;57916;51.996;5.180;2023-03-02T00:06:28;6.00;62.50
70456;DHT22;57916;51.996;5.180;2023-03-02T00:08:58;6.00;62.90
70456;DHT22;57916;51.996;5.180;2023-03-02T00:11:29;6.00;63.40
70456;DHT22;57916;51.996;5.180;2023-03-02T00:13:57;5.90;63.70
70456;DHT22;57916;51.996;5.180;2023-03-02T00:16:24;5.90;64.10
70456;DHT22;57916;51.996;5.180;2023-03-02T00:18:51;5.80;64.50
70456;DHT22;57916;51.996;5.180;2023-03-02T00:21:18;5.80;64.90
70456;DHT22;57916;51.996;5.180;2023-03-02T00:23:45;5.80;65.10
70456;DHT22;57916;51.996;5.180;2023-03-02T00:26:12;5.80;65.40
70456;DHT22;57916;51.996;5.180;2023-03-02T00:28:40;5.80;65.70
70456;DHT22;57916;51.996;5.180;2023-03-02T00:31:06;5.80;65.90
70456;DHT22;57916;51.996;5.180;2023-03-02T00:33:33;5.80;66.00
70456;DHT22;57916;51.996;5.180;2023-03-02T00:36:01;5.70;66.20
70456;DHT22;57916;51.996;5.180;2023-03-02T00:38:28;5.70;66.40
70456;DHT22;57916;51.996;5.180;2023-03-02T00:40:55;5.70;66.80
70456;DHT22;57916;51.996;5.180;2023-03-02T00:43:22;5.70;67.10
70456;DHT22;57916;51.996;5.180;2023-03-02T00:45:54;5.70;67.20
70456;DHT22;57916;51.996;5.180;2023-03-02T00:48:21;5.60;67.50
70456;DHT22;57916;51.996;5.180;2023-03-02T00:50:48;5.60;67.80
70456;DHT22;57916;51.996;5.180;2023-03-02T00:53:15;5.60;68.00
70456;DHT22;57916;51.996;5.180;2023-03-02T00:55:53;5.60;68.10
70456;DHT22;57916;51.996;5.180;2023-03-02T00:58:21;5.60;68.30
70456;DHT22;57916;51.996;5.180;2023-03-02T01:00:48;5.60;68.40
70456;DHT22;57916;51.996;5.180;2023-03-02T01:03:16;5.50;68.40
70456;DHT22;57916;51.996;5.180;2023-03-02T01:05:43;5.60;68.50
70456;DHT22;57916;51.996;5.180;2023-03-02T01:08:10;5.60;68.60
70456;DHT22;57916;51.996;5.180;2023-03-02T01:10:37;5.60;68.60
70456;DHT22;57916;51.996;5.180;2023-03-02T01:13:05;5.60;68.60
70456;DHT22;57916;51.996;5.180;2023-03-02T01:15:32;5.60;68.60
70456;DHT22;57916;51.996;5.180;2023-03-02T01:18:01;5.60;68.60
70456;DHT22;57916;51.996;5.180;2023-03-02T01:20:28;5.60;68.50
70456;DHT22;57916;51.996;5.180;2023-03-02T01:22:55;5.60;68.80
70456;DHT22;57916;51.996;5.180;2023-03-02T01:25:22;5.50;68.90
70456;DHT22;57916;51.996;5.180;2023-03-02T01:27:49;5.50;69.10
70456;DHT22;57916;51.996;5.180;2023-03-02T01:30:16;5.50;69.20
70456;DHT22;57916;51.996;5.180;2023-03-02T01:32:43;5.50;69.30
70456;DHT22;57916;51.996;5.180;2023-03-02T01:35:10;5.40;69.20
70456;DHT22;57916;51.996;5.180;2023-03-02T01:37:37;5.40;69.50
70456;DHT22;57916;51.996;5.180;2023-03-02T01:40:05;5.50;69.60
70456;DHT22;57916;51.996;5.180;2023-03-02T01:42:37;5.50;69.50
70456;DHT22;57916;51.996;5.180;2023-03-02T01:45:05;5.50;69.50
70456;DHT22;57916;51.996;5.180;2023-03-02T01:47:38;5.50;69.60
70456;DHT22;57916;51.996;5.180;2023-03-02T01:50:20;5.50;69.40
70456;DHT22;57916;51.996;5.180;2023-03-02T01:52:53;5.50;69.40
70456;DHT22;57916;51.996;5.180;2023-03-02T01:55:23;5.50;69.40
70456;DHT22;57916;51.996;5.180;2023-03-02T01:57:52;5.50;69.30
70456;DHT22;57916;51.996;5.180;2023-03-02T02:00:25;5.50;69.50
70456;DHT22;57916;51.996;5.180;2023-03-02T02:02:54;5.40;69.60
70456;DHT22;57916;51.996;5.180;2023-03-02T02:05:24;5.50;69.60
70456;DHT22;57916;51.996;5.180;2023-03-02T02:07:52;5.40;69.50
70456;DHT22;57916;51.996;5.180;2023-03-02T02:10:19;5.40;69.40
70456;DHT22;57916;51.996;5.180;2023-03-02T02:12:48;5.40;69.30
70456;DHT22;57916;51.996;5.180;2023-03-02T02:15:15;5.40;69.50
70456;DHT22;57916;51.996;5.180;2023-03-02T02:17:42;5.40;69.50
70456;DHT22;57916;51.996;5.180;2023-03-02T02:23:00;5.30;69.90
70456;DHT22;57916;51.996;5.180;2023-03-02T02:28:24;5.30;70.20
70456;DHT22;57916;51.996;5.180;2023-03-02T02:31:04;5.30;70.30
70456;DHT22;57916;51.996;5.180;2023-03-02T02:33:33;5.30;70.50
70456;DHT22;57916;51.996;5.180;2023-03-02T02:36:08;5.30;70.40
70456;DHT22;57916;51.996;5.180;2023-03-02T02:38:39;5.20;70.40
70456;DHT22;57916;51.996;5.180;2023-03-02T02:41:11;5.20;70.40
70456;DHT22;57916;51.996;5.180;2023-03-02T02:43:44;5.10;70.80
70456;DHT22;57916;51.996;5.180;2023-03-02T02:46:11;5.10;70.80
70456;DHT22;57916;51.996;5.180;2023-03-02T02:48:38;5.10;70.80
70456;DHT22;57916;51.996;5.180;2023-03-02T02:51:07;5.10;70.80
70456;DHT22;57916;51.996;5.180;2023-03-02T02:56:33;5.10;71.00
70456;DHT22;57916;51.996;5.180;2023-03-02T02:59:06;5.10;71.10
70456;DHT22;57916;51.996;5.180;2023-03-02T03:01:35;5.10;71.20
70456;DHT22;57916;51.996;5.180;2023-03-02T03:04:04;5.10;71.20
70456;DHT22;57916;51.996;5.180;2023-03-02T03:06:33;5.10;71.20
70456;DHT22;57916;51.996;5.180;2023-03-02T03:09:06;5.10;71.20
70456;DHT22;57916;51.996;5.180;2023-03-02T03:11:40;5.10;71.20
70456;DHT22;57916;51.996;5.180;2023-03-02T03:14:11;5.20;71.10
70456;DHT22;57916;51.996;5.180;2023-03-02T03:16:41;5.20;71.00
70456;DHT22;57916;51.996;5.180;2023-03-02T03:21:38;5.20;70.80
70456;DHT22;57916;51.996;5.180;2023-03-02T03:24:06;5.20;70.90
70456;DHT22;57916;51.996;5.180;2023-03-02T03:26:33;5.10;70.90
70456;DHT22;57916;51.996;5.180;2023-03-02T03:29:02;5.20;71.10
70456;DHT22;57916;51.996;5.180;2023-03-02T03:31:29;5.20;71.00
70456;DHT22;57916;51.996;5.180;2023-03-02T03:33:57;5.10;70.90
70456;DHT22;57916;51.996;5.180;2023-03-02T03:36:31;5.20;70.70
70456;DHT22;57916;51.996;5.180;2023-03-02T03:39:00;5.10;70.60
70456;DHT22;57916;51.996;5.180;2023-03-02T03:41:28;5.20;70.70
70456;DHT22;57916;51.996;5.180;2023-03-02T03:43:56;5.10;70.80
70456;DHT22;57916;51.996;5.180;2023-03-02T03:46:24;5.20;70.80
70456;DHT22;57916;51.996;5.180;2023-03-02T03:48:51;5.20;70.80
70456;DHT22;57916;51.996;5.180;2023-03-02T03:51:18;5.20;70.80
70456;DHT22;57916;51.996;5.180;2023-03-02T03:53:45;5.20;70.60
70456;DHT22;57916;51.996;5.180;2023-03-02T03:56:13;5.20;70.60
70456;DHT22;57916;51.996;5.180;2023-03-02T03:58:39;5.20;70.60
70456;DHT22;57916;51.996;5.180;2023-03-02T04:01:06;5.20;70.60
70456;DHT22;57916;51.996;5.180;2023-03-02T04:03:33;5.20;70.60
70456;DHT22;57916;51.996;5.180;2023-03-02T04:06:01;5.20;70.60
70456;DHT22;57916;51.996;5.180;2023-03-02T04:08:28;5.10;70.60
70456;DHT22;57916;51.996;5.180;2023-03-02T04:10:55;5.10;70.80
70456;DHT22;57916;51.996;5.180;2023-03-02T04:13:22;5.10;70.70
70456;DHT22;57916;51.996;5.180;2023-03-02T04:15:49;5.10;70.70
70456;DHT22;57916;51.996;5.180;2023-03-02T04:18:16;5.10;70.70
70456;DHT22;57916;51.996;5.180;2023-03-02T04:20:43;5.10;70.60
70456;DHT22;57916;51.996;5.180;2023-03-02T04:23:11;5.10;70.50
70456;DHT22;57916;51.996;5.180;2023-03-02T04:25:38;5.10;70.50
70456;DHT22;57916;51.996;5.180;2023-03-02T04:28:11;5.10;70.60
70456;DHT22;57916;51.996;5.180;2023-03-02T04:30:39;5.10;70.70
70456;DHT22;57916;51.996;5.180;2023-03-02T04:33:06;5.10;70.60
70456;DHT22;57916;51.996;5.180;2023-03-02T04:35:34;5.00;70.70
70456;DHT22;57916;51.996;5.180;2023-03-02T04:38:02;4.90;71.00
70456;DHT22;57916;51.996;5.180;2023-03-02T04:40:29;4.90;72.10
70456;DHT22;57916;51.996;5.180;2023-03-02T04:42:56;4.90;71.30
70456;DHT22;57916;51.996;5.180;2023-03-02T04:45:23;4.80;71.20
70456;DHT22;57916;51.996;5.180;2023-03-02T04:47:49;4.80;71.30
70456;DHT22;57916;51.996;5.180;2023-03-02T04:50:16;4.80;71.20
70456;DHT22;57916;51.996;5.180;2023-03-02T04:52:43;4.80;71.40
70456;DHT22;57916;51.996;5.180;2023-03-02T04:55:18;4.80;71.40
70456;DHT22;57916;51.996;5.180;2023-03-02T04:57:46;4.70;71.30
70456;DHT22;57916;51.996;5.180;2023-03-02T05:00:15;4.70;71.40
70456;DHT22;57916;51.996;5.180;2023-03-02T05:02:42;4.80;71.30
70456;DHT22;57916;51.996;5.180;2023-03-02T05:05:19;4.80;71.50
70456;DHT22;57916;51.996;5.180;2023-03-02T05:07:46;4.80;71.50
70456;DHT22;57916;51.996;5.180;2023-03-02T05:10:14;4.80;71.30
70456;DHT22;57916;51.996;5.180;2023-03-02T05:12:42;4.80;71.30
70456;DHT22;57916;51.996;5.180;2023-03-02T05:17:56;4.80;71.30
70456;DHT22;57916;51.996;5.180;2023-03-02T05:20:24;4.70;71.40
70456;DHT22;57916;51.996;5.180;2023-03-02T05:22:54;4.70;71.50
70456;DHT22;57916;51.996;5.180;2023-03-02T05:25:21;4.70;71.40
70456;DHT22;57916;51.996;5.180;2023-03-02T05:27:48;4.70;71.30
70456;DHT22;57916;51.996;5.180;2023-03-02T05:30:15;4.70;71.30
70456;DHT22;57916;51.996;5.180;2023-03-02T05:32:42;4.70;71.30
70456;DHT22;57916;51.996;5.180;2023-03-02T05:35:09;4.70;71.30
70456;DHT22;57916;51.996;5.180;2023-03-02T05:37:36;4.70;71.40
70456;DHT22;57916;51.996;5.180;2023-03-02T05:40:08;4.60;71.50
70456;DHT22;57916;51.996;5.180;2023-03-02T05:42:35;4.60;71.50
70456;DHT22;57916;51.996;5.180;2023-03-02T05:45:06;4.60;71.60
70456;DHT22;57916;51.996;5.180;2023-03-02T05:47:33;4.60;71.50
70456;DHT22;57916;51.996;5.180;2023-03-02T05:50:00;4.60;71.30
70456;DHT22;57916;51.996;5.180;2023-03-02T05:52:28;4.60;71.30
70456;DHT22;57916;51.996;5.180;2023-03-02T05:54:54;4.60;71.20
70456;DHT22;57916;51.996;5.180;2023-03-02T05:57:24;4.60;71.30
70456;DHT22;57916;51.996;5.180;2023-03-02T05:59:51;4.60;71.20
70456;DHT22;57916;51.996;5.180;2023-03-02T06:02:18;4.60;71.20
70456;DHT22;57916;51.996;5.180;2023-03-02T06:04:45;4.50;71.30
70456;DHT22;57916;51.996;5.180;2023-03-02T06:07:12;4.50;71.40
70456;DHT22;57916;51.996;5.180;2023-03-02T06:09:40;4.50;71.60
70456;DHT22;57916;51.996;5.180;2023-03-02T06:12:08;4.40;71.70
70456;DHT22;57916;51.996;5.180;2023-03-02T06:14:35;4.40;71.80
70456;DHT22;57916;51.996;5.180;2023-03-02T06:17:02;4.40;71.70
70456;DHT22;57916;51.996;5.180;2023-03-02T06:19:29;4.40;71.60
70456;DHT22;57916;51.996;5.180;2023-03-02T06:21:56;4.40;71.70
70456;DHT22;57916;51.996;5.180;2023-03-02T06:24:22;4.40;71.80
70456;DHT22;57916;51.996;5.180;2023-03-02T06:26:52;4.40;71.80
70456;DHT22;57916;51.996;5.180;2023-03-02T06:29:19;4.40;71.80
70456;DHT22;57916;51.996;5.180;2023-03-02T06:31:47;4.40;71.80
70456;DHT22;57916;51.996;5.180;2023-03-02T06:34:14;4.40;71.70
70456;DHT22;57916;51.996;5.180;2023-03-02T06:36:41;4.40;72.50
70456;DHT22;57916;51.996;5.180;2023-03-02T06:39:08;4.40;71.60
70456;DHT22;57916;51.996;5.180;2023-03-02T06:41:42;4.40;71.50
70456;DHT22;57916;51.996;5.180;2023-03-02T06:44:09;4.50;71.60
70456;DHT22;57916;51.996;5.180;2023-03-02T06:46:37;4.50;71.60
70456;DHT22;57916;51.996;5.180;2023-03-02T06:49:04;4.50;71.60
70456;DHT22;57916;51.996;5.180;2023-03-02T06:51:31;4.50;71.60
70456;DHT22;57916;51.996;5.180;2023-03-02T06:53:58;4.50;71.70
70456;DHT22;57916;51.996;5.180;2023-03-02T06:56:25;4.50;71.80
70456;DHT22;57916;51.996;5.180;2023-03-02T06:58:52;4.50;71.60
70456;DHT22;57916;51.996;5.180;2023-03-02T07:01:19;4.50;71.60
70456;DHT22;57916;51.996;5.180;2023-03-02T07:03:46;4.50;71.50
70456;DHT22;57916;51.996;5.180;2023-03-02T07:06:13;4.50;71.50
70456;DHT22;57916;51.996;5.180;2023-03-02T07:08:40;4.50;71.50
70456;DHT22;57916;51.996;5.180;2023-03-02T07:11:08;4.50;71.50
70456;DHT22;57916;51.996;5.180;2023-03-02T07:13:37;4.50;71.50
70456;DHT22;57916;51.996;5.180;2023-03-02T07:16:14;4.50;71.50
70456;DHT22;57916;51.996;5.180;2023-03-02T07:18:41;4.50;71.50
70456;DHT22;57916;51.996;5.180;2023-03-02T07:21:08;4.60;71.70
70456;DHT22;57916;51.996;5.180;2023-03-02T07:23:35;4.60;71.60
70456;DHT22;57916;51.996;5.180;2023-03-02T07:26:02;4.70;71.80
70456;DHT22;57916;51.996;5.180;2023-03-02T07:28:37;4.80;72.10
70456;DHT22;57916;51.996;5.180;2023-03-02T07:31:09;5.00;72.10
70456;DHT22;57916;51.996;5.180;2023-03-02T07:33:37;5.10;71.90
70456;DHT22;57916;51.996;5.180;2023-03-02T07:36:06;5.30;71.40
70456;DHT22;57916;51.996;5.180;2023-03-02T07:38:35;5.60;70.90
70456;DHT22;57916;51.996;5.180;2023-03-02T07:41:06;5.90;70.20
70456;DHT22;57916;51.996;5.180;2023-03-02T07:43:33;6.10;69.20
70456;DHT22;57916;51.996;5.180;2023-03-02T07:46:03;6.20;68.70
70456;DHT22;57916;51.996;5.180;2023-03-02T07:48:31;6.40;68.50
70456;DHT22;57916;51.996;5.180;2023-03-02T07:51:00;6.60;68.10
70456;DHT22;57916;51.996;5.180;2023-03-02T07:53:28;6.80;67.30
70456;DHT22;57916;51.996;5.180;2023-03-02T07:55:55;6.90;66.60
70456;DHT22;57916;51.996;5.180;2023-03-02T07:58:22;6.90;66.50
70456;DHT22;57916;51.996;5.180;2023-03-02T08:00:50;7.00;66.50
70456;DHT22;57916;51.996;5.180;2023-03-02T08:03:17;7.10;65.70
70456;DHT22;57916;51.996;5.180;2023-03-02T08:05:43;7.30;65.70
70456;DHT22;57916;51.996;5.180;2023-03-02T08:08:10;7.40;65.10
70456;DHT22;57916;51.996;5.180;2023-03-02T08:10:37;7.40;64.50
70456;DHT22;57916;51.996;5.180;2023-03-02T08:13:04;7.50;64.20
70456;DHT22;57916;51.996;5.180;2023-03-02T08:15:31;7.50;63.80
70456;DHT22;57916;51.996;5.180;2023-03-02T08:17:58;7.50;63.60
70456;DHT22;57916;51.996;5.180;2023-03-02T08:20:25;7.50;63.60
70456;DHT22;57916;51.996;5.180;2023-03-02T08:22:51;7.50;63.30
70456;DHT22;57916;51.996;5.180;2023-03-02T08:25:19;7.50;63.50
70456;DHT22;57916;51.996;5.180;2023-03-02T08:27:45;7.50;63.40
70456;DHT22;57916;51.996;5.180;2023-03-02T08:30:13;7.50;63.40
70456;DHT22;57916;51.996;5.180;2023-03-02T08:32:40;7.60;63.30
70456;DHT22;57916;51.996;5.180;2023-03-02T08:35:07;7.60;63.20
70456;DHT22;57916;51.996;5.180;2023-03-02T08:37:34;7.50;63.00
70456;DHT22;57916;51.996;5.180;2023-03-02T08:40:01;7.60;63.50
70456;DHT22;57916;51.996;5.180;2023-03-02T08:42:28;7.60;62.90
70456;DHT22;57916;51.996;5.180;2023-03-02T08:44:55;7.60;63.20
70456;DHT22;57916;51.996;5.180;2023-03-02T08:47:21;7.60;62.90
70456;DHT22;57916;51.996;5.180;2023-03-02T08:49:48;7.70;62.90
70456;DHT22;57916;51.996;5.180;2023-03-02T08:52:16;7.80;62.90
70456;DHT22;57916;51.996;5.180;2023-03-02T08:54:43;7.90;62.60
70456;DHT22;57916;51.996;5.180;2023-03-02T08:57:10;7.90;62.30
70456;DHT22;57916;51.996;5.180;2023-03-02T08:59:38;7.90;62.30
70456;DHT22;57916;51.996;5.180;2023-03-02T09:02:04;8.00;62.10
70456;DHT22;57916;51.996;5.180;2023-03-02T09:04:31;8.10;62.20
70456;DHT22;57916;51.996;5.180;2023-03-02T09:06:58;8.20;62.20
70456;DHT22;57916;51.996;5.180;2023-03-02T09:09:25;8.10;61.80
70456;DHT22;57916;51.996;5.180;2023-03-02T09:11:52;8.00;62.00
70456;DHT22;57916;51.996;5.180;2023-03-02T09:14:19;8.00;61.90
70456;DHT22;57916;51.996;5.180;2023-03-02T09:16:47;7.90;61.70
70456;DHT22;57916;51.996;5.180;2023-03-02T09:19:14;7.90;62.50
70456;DHT22;57916;51.996;5.180;2023-03-02T09:21:41;8.00;63.00
70456;DHT22;57916;51.996;5.180;2023-03-02T09:24:09;8.10;62.60
70456;DHT22;57916;51.996;5.180;2023-03-02T09:26:35;8.10;62.90
70456;DHT22;57916;51.996;5.180;2023-03-02T09:29:04;8.30;63.60
70456;DHT22;57916;51.996;5.180;2023-03-02T09:31:34;8.50;63.00
70456;DHT22;57916;51.996;5.180;2023-03-02T09:34:03;8.80;62.40
70456;DHT22;57916;51.996;5.180;2023-03-02T09:36:30;9.20;62.00
70456;DHT22;57916;51.996;5.180;2023-03-02T09:38:58;9.50;61.40
70456;DHT22;57916;51.996;5.180;2023-03-02T09:41:41;9.80;60.40
70456;DHT22;57916;51.996;5.180;2023-03-02T09:44:35;10.10;59.50
70456;DHT22;57916;51.996;5.180;2023-03-02T09:52:51;10.40;58.00
70456;DHT22;57916;51.996;5.180;2023-03-02T09:55:26;10.40;57.80
70456;DHT22;57916;51.996;5.180;2023-03-02T09:57:54;10.50;57.20
70456;DHT22;57916;51.996;5.180;2023-03-02T10:00:30;10.60;57.10
70456;DHT22;57916;51.996;5.180;2023-03-02T10:03:04;10.60;56.60
70456;DHT22;57916;51.996;5.180;2023-03-02T10:05:53;10.70;56.60
70456;DHT22;57916;51.996;5.180;2023-03-02T10:08:23;10.70;56.00
70456;DHT22;57916;51.996;5.180;2023-03-02T10:11:04;10.70;56.40
70456;DHT22;57916;51.996;5.180;2023-03-02T10:13:48;10.80;56.60
70456;DHT22;57916;51.996;5.180;2023-03-02T10:16:24;10.80;55.20
70456;DHT22;57916;51.996;5.180;2023-03-02T10:19:12;10.70;55.50
70456;DHT22;57916;51.996;5.180;2023-03-02T10:21:44;10.60;55.70
70456;DHT22;57916;51.996;5.180;2023-03-02T10:26:54;10.60;56.50
70456;DHT22;57916;51.996;5.180;2023-03-02T10:32:22;10.90;55.80
70456;DHT22;57916;51.996;5.180;2023-03-02T10:34:51;11.10;56.20
70456;DHT22;57916;51.996;5.180;2023-03-02T10:37:22;11.30;55.70
70456;DHT22;57916;51.996;5.180;2023-03-02T10:39:51;11.40;54.80
70456;DHT22;57916;51.996;5.180;2023-03-02T10:42:25;11.60;53.80
70456;DHT22;57916;51.996;5.180;2023-03-02T10:45:02;11.70;53.30
70456;DHT22;57916;51.996;5.180;2023-03-02T10:47:31;11.80;53.20
70456;DHT22;57916;51.996;5.180;2023-03-02T10:49:58;11.90;52.80
70456;DHT22;57916;51.996;5.180;2023-03-02T10:52:27;12.00;52.20
70456;DHT22;57916;51.996;5.180;2023-03-02T10:55:06;12.00;51.80
70456;DHT22;57916;51.996;5.180;2023-03-02T10:57:43;12.10;52.40
70456;DHT22;57916;51.996;5.180;2023-03-02T11:00:22;12.10;51.80
70456;DHT22;57916;51.996;5.180;2023-03-02T11:03:19;12.10;51.80
70456;DHT22;57916;51.996;5.180;2023-03-02T11:05:46;12.20;51.20
70456;DHT22;57916;51.996;5.180;2023-03-02T11:08:19;12.20;51.00
70456;DHT22;57916;51.996;5.180;2023-03-02T11:13:23;12.70;50.50
70456;DHT22;57916;51.996;5.180;2023-03-02T11:15:55;12.90;48.70
70456;DHT22;57916;51.996;5.180;2023-03-02T11:18:26;12.60;47.40
70456;DHT22;57916;51.996;5.180;2023-03-02T11:21:09;12.20;47.50
70456;DHT22;57916;51.996;5.180;2023-03-02T11:24:05;11.90;48.70
70456;DHT22;57916;51.996;5.180;2023-03-02T11:26:48;11.90;49.40
70456;DHT22;57916;51.996;5.180;2023-03-02T11:32:59;12.10;49.20
70456;DHT22;57916;51.996;5.180;2023-03-02T11:38:15;12.10;48.30
70456;DHT22;57916;51.996;5.180;2023-03-02T11:40:47;12.20;48.40
70456;DHT22;57916;51.996;5.180;2023-03-02T11:43:15;12.00;48.50
70456;DHT22;57916;51.996;5.180;2023-03-02T11:45:48;12.10;48.90
70456;DHT22;57916;51.996;5.180;2023-03-02T11:49:05;12.20;48.30
70456;DHT22;57916;51.996;5.180;2023-03-02T11:51:17;12.10;48.10
70456;DHT22;57916;51.996;5.180;2023-03-02T11:53:47;11.90;46.50
70456;DHT22;57916;51.996;5.180;2023-03-02T11:56:16;11.70;47.10
70456;DHT22;57916;51.996;5.180;2023-03-02T11:58:55;11.70;48.70
70456;DHT22;57916;51.996;5.180;2023-03-02T12:01:25;11.70;48.80
70456;DHT22;57916;51.996;5.180;2023-03-02T12:03:52;11.70;48.10
70456;DHT22;57916;51.996;5.180;2023-03-02T12:08:49;11.80;48.70
70456;DHT22;57916;51.996;5.180;2023-03-02T12:16:32;12.00;48.50
70456;DHT22;57916;51.996;5.180;2023-03-02T12:22:04;11.90;48.90
70456;DHT22;57916;51.996;5.180;2023-03-02T12:24:34;11.90;48.60
70456;DHT22;57916;51.996;5.180;2023-03-02T12:27:05;12.00;49.00
70456;DHT22;57916;51.996;5.180;2023-03-02T12:32:25;12.20;49.50
70456;DHT22;57916;51.996;5.180;2023-03-02T12:37:43;12.30;47.50
70456;DHT22;57916;51.996;5.180;2023-03-02T12:48:46;12.50;48.40
70456;DHT22;57916;51.996;5.180;2023-03-02T12:51:20;12.50;47.90
70456;DHT22;57916;51.996;5.180;2023-03-02T12:53:49;12.60;47.40
70456;DHT22;57916;51.996;5.180;2023-03-02T12:56:26;12.70;47.10
70456;DHT22;57916;51.996;5.180;2023-03-02T12:58:54;12.70;46.10
70456;DHT22;57916;51.996;5.180;2023-03-02T13:01:31;12.60;46.40
70456;DHT22;57916;51.996;5.180;2023-03-02T13:03:58;12.50;47.00
70456;DHT22;57916;51.996;5.180;2023-03-02T13:06:29;12.60;47.60
70456;DHT22;57916;51.996;5.180;2023-03-02T13:08:57;12.60;47.30
70456;DHT22;57916;51.996;5.180;2023-03-02T13:11:31;12.60;47.50
70456;DHT22;57916;51.996;5.180;2023-03-02T13:13:59;12.60;47.90
70456;DHT22;57916;51.996;5.180;2023-03-02T13:16:31;12.70;48.10
70456;DHT22;57916;51.996;5.180;2023-03-02T13:19:02;12.70;48.20
70456;DHT22;57916;51.996;5.180;2023-03-02T13:21:38;12.80;47.40
70456;DHT22;57916;51.996;5.180;2023-03-02T13:27:02;13.00;46.40
70456;DHT22;57916;51.996;5.180;2023-03-02T13:29:30;13.00;45.40
70456;DHT22;57916;51.996;5.180;2023-03-02T13:32:16;13.00;45.50
70456;DHT22;57916;51.996;5.180;2023-03-02T13:34:52;13.00;45.80
70456;DHT22;57916;51.996;5.180;2023-03-02T13:37:35;13.00;46.40
70456;DHT22;57916;51.996;5.180;2023-03-02T13:40:29;13.00;46.00
70456;DHT22;57916;51.996;5.180;2023-03-02T13:42:56;13.10;46.40
70456;DHT22;57916;51.996;5.180;2023-03-02T13:45:31;13.10;46.20
70456;DHT22;57916;51.996;5.180;2023-03-02T13:48:12;13.10;45.40
70456;DHT22;57916;51.996;5.180;2023-03-02T13:50:50;13.10;45.60
70456;DHT22;57916;51.996;5.180;2023-03-02T13:53:18;13.10;46.50
70456;DHT22;57916;51.996;5.180;2023-03-02T13:55:46;13.10;47.00
70456;DHT22;57916;51.996;5.180;2023-03-02T13:58:15;13.10;47.40
70456;DHT22;57916;51.996;5.180;2023-03-02T14:00:44;13.20;47.50
70456;DHT22;57916;51.996;5.180;2023-03-02T14:03:27;13.30;47.10
70456;DHT22;57916;51.996;5.180;2023-03-02T14:05:55;13.30;47.10
70456;DHT22;57916;51.996;5.180;2023-03-02T14:08:23;13.30;46.40
70456;DHT22;57916;51.996;5.180;2023-03-02T14:10:52;13.40;45.10
70456;DHT22;57916;51.996;5.180;2023-03-02T14:13:40;13.30;45.40
70456;DHT22;57916;51.996;5.180;2023-03-02T14:16:11;13.40;46.50
70456;DHT22;57916;51.996;5.180;2023-03-02T14:18:44;13.30;48.00
70456;DHT22;57916;51.996;5.180;2023-03-02T14:21:17;13.40;48.50
70456;DHT22;57916;51.996;5.180;2023-03-02T14:23:44;13.40;48.30
70456;DHT22;57916;51.996;5.180;2023-03-02T14:26:20;13.40;48.90
70456;DHT22;57916;51.996;5.180;2023-03-02T14:28:49;13.40;48.70
70456;DHT22;57916;51.996;5.180;2023-03-02T14:31:30;13.40;48.70
70456;DHT22;57916;51.996;5.180;2023-03-02T14:33:58;13.30;48.50
70456;DHT22;57916;51.996;5.180;2023-03-02T14:36:44;13.30;48.50
70456;DHT22;57916;51.996;5.180;2023-03-02T14:39:37;13.30;48.40
70456;DHT22;57916;51.996;5.180;2023-03-02T14:42:09;13.20;48.40
70456;DHT22;57916;51.996;5.180;2023-03-02T14:44:37;13.20;48.60
70456;DHT22;57916;51.996;5.180;2023-03-02T14:47:04;13.20;49.10
70456;DHT22;57916;51.996;5.180;2023-03-02T14:49:32;13.20;49.80
70456;DHT22;57916;51.996;5.180;2023-03-02T14:52:18;13.20;51.00
70456;DHT22;57916;51.996;5.180;2023-03-02T14:54:50;13.20;50.20
70456;DHT22;57916;51.996;5.180;2023-03-02T14:57:23;13.20;50.20
70456;DHT22;57916;51.996;5.180;2023-03-02T14:59:52;13.20;50.20
70456;DHT22;57916;51.996;5.180;2023-03-02T15:02:20;13.20;49.40
70456;DHT22;57916;51.996;5.180;2023-03-02T15:04:53;13.20;50.10
70456;DHT22;57916;51.996;5.180;2023-03-02T15:07:25;13.20;49.90
70456;DHT22;57916;51.996;5.180;2023-03-02T15:09:54;13.20;49.70
70456;DHT22;57916;51.996;5.180;2023-03-02T15:12:21;13.20;49.50
70456;DHT22;57916;51.996;5.180;2023-03-02T15:14:48;13.20;49.70
70456;DHT22;57916;51.996;5.180;2023-03-02T15:17:15;13.20;49.50
70456;DHT22;57916;51.996;5.180;2023-03-02T15:19:41;13.30;49.80
70456;DHT22;57916;51.996;5.180;2023-03-02T15:22:09;13.30;49.80
70456;DHT22;57916;51.996;5.180;2023-03-02T15:24:36;13.30;49.50
70456;DHT22;57916;51.996;5.180;2023-03-02T15:27:03;13.20;49.10
70456;DHT22;57916;51.996;5.180;2023-03-02T15:29:29;13.20;49.60
70456;DHT22;57916;51.996;5.180;2023-03-02T15:31:56;13.20;49.20
70456;DHT22;57916;51.996;5.180;2023-03-02T15:34:23;13.20;50.20
70456;DHT22;57916;51.996;5.180;2023-03-02T15:36:50;13.20;51.00
70456;DHT22;57916;51.996;5.180;2023-03-02T15:39:17;13.20;51.10
70456;DHT22;57916;51.996;5.180;2023-03-02T15:41:44;13.30;51.20
70456;DHT22;57916;51.996;5.180;2023-03-02T15:44:20;13.20;51.10
70456;DHT22;57916;51.996;5.180;2023-03-02T15:46:56;13.20;50.70
70456;DHT22;57916;51.996;5.180;2023-03-02T15:49:25;13.20;50.20
70456;DHT22;57916;51.996;5.180;2023-03-02T15:51:57;13.20;50.70
70456;DHT22;57916;51.996;5.180;2023-03-02T15:54:25;13.10;50.80
70456;DHT22;57916;51.996;5.180;2023-03-02T15:56:52;13.10;50.80
70456;DHT22;57916;51.996;5.180;2023-03-02T15:59:27;13.10;51.20
70456;DHT22;57916;51.996;5.180;2023-03-02T16:01:55;13.00;51.00
70456;DHT22;57916;51.996;5.180;2023-03-02T16:04:25;12.90;51.00
70456;DHT22;57916;51.996;5.180;2023-03-02T16:06:52;12.90;51.30
70456;DHT22;57916;51.996;5.180;2023-03-02T16:09:22;12.80;51.40
70456;DHT22;57916;51.996;5.180;2023-03-02T16:11:50;12.70;52.00
70456;DHT22;57916;51.996;5.180;2023-03-02T16:14:17;12.60;52.20
70456;DHT22;57916;51.996;5.180;2023-03-02T16:16:45;12.60;52.60
70456;DHT22;57916;51.996;5.180;2023-03-02T16:19:14;12.50;53.10
70456;DHT22;57916;51.996;5.180;2023-03-02T16:21:44;12.50;53.20
70456;DHT22;57916;51.996;5.180;2023-03-02T16:24:11;12.40;53.40
70456;DHT22;57916;51.996;5.180;2023-03-02T16:26:39;12.30;53.70
70456;DHT22;57916;51.996;5.180;2023-03-02T16:29:06;12.20;54.00
70456;DHT22;57916;51.996;5.180;2023-03-02T16:31:36;12.20;54.20
70456;DHT22;57916;51.996;5.180;2023-03-02T16:34:06;12.20;54.40
70456;DHT22;57916;51.996;5.180;2023-03-02T16:36:36;12.20;54.50
70456;DHT22;57916;51.996;5.180;2023-03-02T16:39:05;12.10;55.60
70456;DHT22;57916;51.996;5.180;2023-03-02T16:41:32;12.00;54.70
70456;DHT22;57916;51.996;5.180;2023-03-02T16:43:59;12.00;54.70
70456;DHT22;57916;51.996;5.180;2023-03-02T16:46:29;12.00;54.80
70456;DHT22;57916;51.996;5.180;2023-03-02T16:48:57;11.90;55.00
70456;DHT22;57916;51.996;5.180;2023-03-02T16:51:24;11.80;54.80
70456;DHT22;57916;51.996;5.180;2023-03-02T16:53:51;11.80;54.80
70456;DHT22;57916;51.996;5.180;2023-03-02T16:56:19;11.70;54.70
70456;DHT22;57916;51.996;5.180;2023-03-02T16:58:46;11.70;54.70